sensor_id;sensor_type;location;lat;lon;timestamp;pressure;altitude;pressure_sealevel;temperature;humidity
59055;BME280;44845;51.444;7.460;2024-03-23T00:53:24;99086.00;;;8.14;91.96
59055;BME280;44845;51.444;7.460;2024-03-23T00:55:49;99090.25;;;8.28;91.42
59055;BME280;44845;51.444;7.460;2024-03-23T00:58:15;99085.00;;;8.29;91.67
59055;BME280;44845;51.444;7.460;2024-03-23T01:00:41;99088.28;;;8.47;91.32
59055;BME280;44845;51.444;7.460;2024-03-23T01:03:06;99089.50;;;8.15;90.16
59055;BME280;44845;51.444;7.460;2024-03-23T01:05:31;99082.44;;;8.25;90.25
59055;BME280;44845;51.444;7.460;2024-03-23T01:07:57;99074.50;;;8.31;89.37
59055;BME280;44845;51.444;7.460;2024-03-23T01:10:22;99070.88;;;8.48;89.80
59055;BME280;44845;51.444;7.460;2024-03-23T01:12:47;99075.22;;;8.47;89.19
59055;BME280;44845;51.444;7.460;2024-03-23T01:15:13;99069.97;;;8.49;89.17
59055;BME280;44845;51.444;7.460;2024-03-23T01:17:38;99070.91;;;8.41;88.66
59055;BME280;44845;51.444;7.460;2024-03-23T01:20:03;99064.75;;;8.45;89.46
59055;BME280;44845;51.444;7.460;2024-03-23T01:22:29;99059.84;;;8.20;89.37
59055;BME280;44845;51.444;7.460;2024-03-23T01:24:54;99065.19;;;8.08;91.21
59055;BME280;44845;51.444;7.460;2024-03-23T01:27:20;99064.94;;;8.33;91.17
59055;BME280;44845;51.444;7.460;2024-03-23T01:29:45;99055.56;;;8.13;90.12
59055;BME280;44845;51.444;7.460;2024-03-23T01:32:10;99059.72;;;8.30;90.86
59055;BME280;44845;51.444;7.460;2024-03-23T01:34:36;99051.78;;;8.39;90.97
59055;BME280;44845;51.444;7.460;2024-03-23T01:37:01;99045.69;;;8.40;91.00
59055;BME280;44845;51.444;7.460;2024-03-23T01:39:26;99046.66;;;8.30;91.20
59055;BME280;44845;51.444;7.460;2024-03-23T01:41:52;99055.47;;;8.22;91.54
59055;BME280;44845;51.444;7.460;2024-03-23T01:44:17;99051.81;;;8.36;91.28
59055;BME280;44845;51.444;7.460;2024-03-23T01:46:43;99028.34;;;8.33;90.68
59055;BME280;44845;51.444;7.460;2024-03-23T01:49:09;99029.47;;;8.10;89.11
59055;BME280;44845;51.444;7.460;2024-03-23T01:51:35;99038.88;;;8.23;88.75
59055;BME280;44845;51.444;7.460;2024-03-23T01:54:04;99035.66;;;8.03;86.09
59055;BME280;44845;51.444;7.460;2024-03-23T01:56:34;99039.06;;;8.11;87.78
59055;BME280;44845;51.444;7.460;2024-03-23T01:59:03;99037.41;;;8.00;88.56
59055;BME280;44845;51.444;7.460;2024-03-23T02:01:28;99037.56;;;7.83;87.08
59055;BME280;44845;51.444;7.460;2024-03-23T02:03:54;99029.63;;;7.96;88.06
59055;BME280;44845;51.444;7.460;2024-03-23T02:06:19;99042.66;;;7.97;89.94
59055;BME280;44845;51.444;7.460;2024-03-23T02:08:44;99040.78;;;8.09;86.89
59055;BME280;44845;51.444;7.460;2024-03-23T02:11:10;99038.19;;;8.09;88.65
59055;BME280;44845;51.444;7.460;2024-03-23T02:13:35;99032.94;;;8.12;87.39
59055;BME280;44845;51.444;7.460;2024-03-23T02:16:01;99016.53;;;7.97;87.36
59055;BME280;44845;51.444;7.460;2024-03-23T02:18:26;99033.16;;;7.90;86.69
59055;BME280;44845;51.444;7.460;2024-03-23T02:20:52;99033.19;;;7.88;85.03
59055;BME280;44845;51.444;7.460;2024-03-23T02:23:18;99026.97;;;8.00;87.01
59055;BME280;44845;51.444;7.460;2024-03-23T02:25:43;99027.13;;;7.85;86.70
59055;BME280;44845;51.444;7.460;2024-03-23T02:28:09;99029.78;;;7.80;89.29
59055;BME280;44845;51.444;7.460;2024-03-23T02:30:34;99022.75;;;7.85;88.15
59055;BME280;44845;51.444;7.460;2024-03-23T02:33:00;99014.09;;;7.83;85.88
59055;BME280;44845;51.444;7.460;2024-03-23T02:35:25;99009.69;;;7.87;89.34
59055;BME280;44845;51.444;7.460;2024-03-23T02:37:51;99006.41;;;7.69;86.46
59055;BME280;44845;51.444;7.460;2024-03-23T02:40:17;99000.13;;;7.86;87.85
59055;BME280;44845;51.444;7.460;2024-03-23T02:42:42;99000.06;;;7.94;89.09
59055;BME280;44845;51.444;7.460;2024-03-23T02:45:08;99000.91;;;7.94;90.27
59055;BME280;44845;51.444;7.460;2024-03-23T02:47:33;99003.53;;;7.96;89.98
59055;BME280;44845;51.444;7.460;2024-03-23T02:49:58;99000.00;;;7.98;88.72
59055;BME280;44845;51.444;7.460;2024-03-23T02:52:24;99006.25;;;7.82;91.41
59055;BME280;44845;51.444;7.460;2024-03-23T02:54:49;99002.66;;;7.95;89.92
59055;BME280;44845;51.444;7.460;2024-03-23T02:57:15;99007.94;;;7.87;91.00
59055;BME280;44845;51.444;7.460;2024-03-23T02:59:40;98992.25;;;7.89;89.54
59055;BME280;44845;51.444;7.460;2024-03-23T03:02:06;98987.03;;;7.91;90.20
59055;BME280;44845;51.444;7.460;2024-03-23T03:04:31;98994.84;;;7.94;86.63
59055;BME280;44845;51.444;7.460;2024-03-23T03:06:57;99000.97;;;7.91;86.49
59055;BME280;44845;51.444;7.460;2024-03-23T03:09:22;99009.75;;;7.81;88.50
59055;BME280;44845;51.444;7.460;2024-03-23T03:11:48;99016.00;;;7.64;86.40
59055;BME280;44845;51.444;7.460;2024-03-23T03:14:13;99018.53;;;7.73;87.72
59055;BME280;44845;51.444;7.460;2024-03-23T03:16:38;99006.31;;;7.79;85.34
59055;BME280;44845;51.444;7.460;2024-03-23T03:19:04;99015.13;;;7.65;85.71
59055;BME280;44845;51.444;7.460;2024-03-23T03:21:29;99011.66;;;7.63;82.12
59055;BME280;44845;51.444;7.460;2024-03-23T03:23:55;99012.53;;;7.63;85.46
59055;BME280;44845;51.444;7.460;2024-03-23T03:26:22;99010.84;;;7.59;84.64
59055;BME280;44845;51.444;7.460;2024-03-23T03:28:47;99007.34;;;7.59;85.76
59055;BME280;44845;51.444;7.460;2024-03-23T03:31:19;98999.44;;;7.68;85.24
59055;BME280;44845;51.444;7.460;2024-03-23T03:33:45;99002.84;;;7.75;85.27
59055;BME280;44845;51.444;7.460;2024-03-23T03:36:11;98995.97;;;7.69;84.90
59055;BME280;44845;51.444;7.460;2024-03-23T03:38:36;98994.22;;;7.65;87.40
59055;BME280;44845;51.444;7.460;2024-03-23T03:41:02;98983.78;;;7.65;86.43
59055;BME280;44845;51.444;7.460;2024-03-23T03:43:27;98987.22;;;7.70;88.32
59055;BME280;44845;51.444;7.460;2024-03-23T03:45:54;98983.88;;;7.59;88.46
59055;BME280;44845;51.444;7.460;2024-03-23T03:48:20;98980.47;;;7.50;90.18
59055;BME280;44845;51.444;7.460;2024-03-23T03:50:45;98982.09;;;7.61;89.61
59055;BME280;44845;51.444;7.460;2024-03-23T03:53:11;98979.44;;;7.65;90.00
59055;BME280;44845;51.444;7.460;2024-03-23T03:55:36;98992.44;;;7.70;89.21
59055;BME280;44845;51.444;7.460;2024-03-23T03:58:01;98993.31;;;7.71;88.89
59055;BME280;44845;51.444;7.460;2024-03-23T04:00:27;98998.53;;;7.71;88.83
59055;BME280;44845;51.444;7.460;2024-03-23T04:02:52;99003.75;;;7.74;88.91
59055;BME280;44845;51.444;7.460;2024-03-23T04:05:17;99002.88;;;7.73;88.37
59055;BME280;44845;51.444;7.460;2024-03-23T04:07:44;99004.72;;;7.62;89.22
59055;BME280;44845;51.444;7.460;2024-03-23T04:10:09;99008.13;;;7.69;89.11
59055;BME280;44845;51.444;7.460;2024-03-23T04:12:35;98995.97;;;7.66;88.68
59055;BME280;44845;51.444;7.460;2024-03-23T04:15:00;98996.91;;;7.59;88.35
59055;BME280;44845;51.444;7.460;2024-03-23T04:17:28;98993.41;;;7.63;89.28
59055;BME280;44845;51.444;7.460;2024-03-23T04:19:58;98976.78;;;7.70;89.54
59055;BME280;44845;51.444;7.460;2024-03-23T04:22:23;98969.84;;;7.68;88.14
59055;BME280;44845;51.444;7.460;2024-03-23T04:24:52;98982.09;;;7.61;89.91
59055;BME280;44845;51.444;7.460;2024-03-23T04:27:18;98976.88;;;7.62;89.44
59055;BME280;44845;51.444;7.460;2024-03-23T04:29:55;98985.56;;;7.63;88.93
59055;BME280;44845;51.444;7.460;2024-03-23T04:32:20;98983.84;;;7.62;89.87
59055;BME280;44845;51.444;7.460;2024-03-23T04:34:46;98984.75;;;7.58;89.14
59055;BME280;44845;51.444;7.460;2024-03-23T04:37:11;98989.94;;;7.61;89.18
59055;BME280;44845;51.444;7.460;2024-03-23T04:39:37;98976.88;;;7.61;88.77
59055;BME280;44845;51.444;7.460;2024-03-23T04:42:03;98983.88;;;7.59;89.33
59055;BME280;44845;51.444;7.460;2024-03-23T04:44:29;98981.25;;;7.59;88.78
59055;BME280;44845;51.444;7.460;2024-03-23T04:46:56;98972.50;;;7.64;89.49
59055;BME280;44845;51.444;7.460;2024-03-23T04:49:21;98966.44;;;7.61;89.96
59055;BME280;44845;51.444;7.460;2024-03-23T04:51:47;98967.41;;;7.52;89.58
59055;BME280;44845;51.444;7.460;2024-03-23T04:54:12;98970.81;;;7.59;89.47
59055;BME280;44845;51.444;7.460;2024-03-23T04:56:38;98970.81;;;7.59;88.31
59055;BME280;44845;51.444;7.460;2024-03-23T04:59:03;98971.75;;;7.51;88.80
59055;BME280;44845;51.444;7.460;2024-03-23T05:01:30;98972.63;;;7.50;88.08
59055;BME280;44845;51.444;7.460;2024-03-23T05:03:56;98972.59;;;7.55;88.61
59055;BME280;44845;51.444;7.460;2024-03-23T05:06:22;98973.47;;;7.52;88.37
59055;BME280;44845;51.444;7.460;2024-03-23T05:08:47;98976.03;;;7.57;87.72
59055;BME280;44845;51.444;7.460;2024-03-23T05:11:13;98967.38;;;7.57;88.40
59055;BME280;44845;51.444;7.460;2024-03-23T05:13:38;98976.88;;;7.61;88.27
59055;BME280;44845;51.444;7.460;2024-03-23T05:16:03;98980.38;;;7.60;88.83
59055;BME280;44845;51.444;7.460;2024-03-23T05:18:29;98976.88;;;7.61;88.48
59055;BME280;44845;51.444;7.460;2024-03-23T05:20:58;98976.97;;;7.54;88.17
59055;BME280;44845;51.444;7.460;2024-03-23T05:23:24;98981.25;;;7.59;88.32
59055;BME280;44845;51.444;7.460;2024-03-23T05:25:49;98979.56;;;7.53;87.82
59055;BME280;44845;51.444;7.460;2024-03-23T05:28:15;98976.09;;;7.52;88.48
59055;BME280;44845;51.444;7.460;2024-03-23T05:30:40;98979.56;;;7.54;88.37
59055;BME280;44845;51.444;7.460;2024-03-23T05:33:05;98975.25;;;7.50;88.13
59055;BME280;44845;51.444;7.460;2024-03-23T05:35:31;98983.97;;;7.49;88.13
59055;BME280;44845;51.444;7.460;2024-03-23T05:37:57;98980.47;;;7.47;87.98
59055;BME280;44845;51.444;7.460;2024-03-23T05:40:23;98981.34;;;7.49;87.87
59055;BME280;44845;51.444;7.460;2024-03-23T05:42:49;98971.78;;;7.48;87.71
59055;BME280;44845;51.444;7.460;2024-03-23T05:45:14;98970.03;;;7.47;88.52
59055;BME280;44845;51.444;7.460;2024-03-23T05:47:39;98972.66;;;7.49;88.56
59055;BME280;44845;51.444;7.460;2024-03-23T05:50:05;98975.31;;;7.41;87.88
59055;BME280;44845;51.444;7.460;2024-03-23T05:52:30;98987.47;;;7.45;87.58
59055;BME280;44845;51.444;7.460;2024-03-23T05:54:56;98986.56;;;7.48;87.91
59055;BME280;44845;51.444;7.460;2024-03-23T05:57:21;99001.41;;;7.44;88.29
59055;BME280;44845;51.444;7.460;2024-03-23T05:59:46;99000.53;;;7.40;88.34
59055;BME280;44845;51.444;7.460;2024-03-23T06:02:12;98997.03;;;7.43;88.29
59055;BME280;44845;51.444;7.460;2024-03-23T06:04:39;98987.63;;;7.23;88.61
59055;BME280;44845;51.444;7.460;2024-03-23T06:07:05;98989.31;;;7.34;89.41
59055;BME280;44845;51.444;7.460;2024-03-23T06:09:32;98985.84;;;7.35;89.37
59055;BME280;44845;51.444;7.460;2024-03-23T06:11:57;98984.94;;;7.37;88.30
59055;BME280;44845;51.444;7.460;2024-03-23T06:14:23;98982.34;;;7.32;89.08
59055;BME280;44845;51.444;7.460;2024-03-23T06:16:48;98985.06;;;7.18;89.02
59055;BME280;44845;51.444;7.460;2024-03-23T06:19:14;98987.53;;;7.36;89.19
59055;BME280;44845;51.444;7.460;2024-03-23T06:21:43;98984.97;;;7.34;89.39
59055;BME280;44845;51.444;7.460;2024-03-23T06:24:10;98990.19;;;7.34;88.96
59055;BME280;44845;51.444;7.460;2024-03-23T06:26:35;98992.91;;;7.15;88.17
59055;BME280;44845;51.444;7.460;2024-03-23T06:29:00;99000.59;;;7.37;88.73
59055;BME280;44845;51.444;7.460;2024-03-23T06:31:26;99001.41;;;7.41;89.57
59055;BME280;44845;51.444;7.460;2024-03-23T06:33:51;99003.97;;;7.49;90.17
59055;BME280;44845;51.444;7.460;2024-03-23T06:36:16;99009.19;;;7.49;88.12
59055;BME280;44845;51.444;7.460;2024-03-23T06:38:42;99011.75;;;7.53;88.83
59055;BME280;44845;51.444;7.460;2024-03-23T06:41:08;99001.50;;;7.31;89.69
59055;BME280;44845;51.444;7.460;2024-03-23T06:43:33;99008.38;;;7.42;89.87
59055;BME280;44845;51.444;7.460;2024-03-23T06:45:58;98997.03;;;7.46;90.49
59055;BME280;44845;51.444;7.460;2024-03-23T06:48:24;98995.31;;;7.40;89.45
59055;BME280;44845;51.444;7.460;2024-03-23T06:50:49;98999.72;;;7.37;90.85
59055;BME280;44845;51.444;7.460;2024-03-23T06:53:17;98998.03;;;7.29;90.88
59055;BME280;44845;51.444;7.460;2024-03-23T06:55:50;99005.19;;;7.02;90.87
59055;BME280;44845;51.444;7.460;2024-03-23T06:58:15;99001.47;;;7.35;91.12
59055;BME280;44845;51.444;7.460;2024-03-23T07:00:41;98998.84;;;7.36;91.02
59055;BME280;44845;51.444;7.460;2024-03-23T07:03:06;99008.38;;;7.40;91.58
59055;BME280;44845;51.444;7.460;2024-03-23T07:05:32;99009.22;;;7.42;91.20
59055;BME280;44845;51.444;7.460;2024-03-23T07:07:57;99004.09;;;7.31;91.60
59055;BME280;44845;51.444;7.460;2024-03-23T07:10:22;99020.69;;;7.21;91.64
59055;BME280;44845;51.444;7.460;2024-03-23T07:12:48;99022.31;;;7.38;91.13
59055;BME280;44845;51.444;7.460;2024-03-23T07:15:13;99034.50;;;7.36;90.62
59055;BME280;44845;51.444;7.460;2024-03-23T07:17:39;99018.81;;;7.42;91.65
59055;BME280;44845;51.444;7.460;2024-03-23T07:20:04;99019.50;;;7.63;91.40
59055;BME280;44845;51.444;7.460;2024-03-23T07:22:30;99012.50;;;7.66;89.92
59055;BME280;44845;51.444;7.460;2024-03-23T07:24:56;99016.75;;;7.75;90.50
59055;BME280;44845;51.444;7.460;2024-03-23T07:27:22;99025.56;;;7.65;90.75
59055;BME280;44845;51.444;7.460;2024-03-23T07:29:49;99023.06;;;7.51;91.29
59055;BME280;44845;51.444;7.460;2024-03-23T07:32:14;99025.63;;;7.59;91.20
59055;BME280;44845;51.444;7.460;2024-03-23T07:34:39;99022.00;;;7.72;90.25
59055;BME280;44845;51.444;7.460;2024-03-23T07:37:05;99014.25;;;7.66;90.56
59055;BME280;44845;51.444;7.460;2024-03-23T07:39:30;99017.78;;;7.59;90.81
59055;BME280;44845;51.444;7.460;2024-03-23T07:41:58;99013.19;;;7.84;90.62
59055;BME280;44845;51.444;7.460;2024-03-23T07:44:23;99016.75;;;7.79;90.82
59055;BME280;44845;51.444;7.460;2024-03-23T07:46:48;99016.66;;;7.88;89.62
59055;BME280;44845;51.444;7.460;2024-03-23T07:49:14;99021.91;;;7.82;90.42
59055;BME280;44845;51.444;7.460;2024-03-23T07:51:39;99016.56;;;7.94;89.69
59055;BME280;44845;51.444;7.460;2024-03-23T07:54:05;99022.63;;;7.96;89.52
59055;BME280;44845;51.444;7.460;2024-03-23T07:56:31;99027.00;;;7.97;89.86
59055;BME280;44845;51.444;7.460;2024-03-23T07:58:57;99022.78;;;7.82;89.16
59055;BME280;44845;51.444;7.460;2024-03-23T08:01:22;99018.41;;;7.86;89.44
59055;BME280;44845;51.444;7.460;2024-03-23T08:03:49;99016.66;;;7.88;89.84
59055;BME280;44845;51.444;7.460;2024-03-23T08:06:15;99020.06;;;7.92;89.10
59055;BME280;44845;51.444;7.460;2024-03-23T08:08:42;99030.69;;;7.74;90.11
59055;BME280;44845;51.444;7.460;2024-03-23T08:11:08;99027.22;;;7.72;90.04
59055;BME280;44845;51.444;7.460;2024-03-23T08:13:34;99021.06;;;7.81;90.42
59055;BME280;44845;51.444;7.460;2024-03-23T08:16:01;99024.56;;;7.77;90.61
59055;BME280;44845;51.444;7.460;2024-03-23T08:18:26;99027.81;;;8.03;90.73
59055;BME280;44845;51.444;7.460;2024-03-23T08:21:03;99023.38;;;8.11;89.03
59055;BME280;44845;51.444;7.460;2024-03-23T08:23:30;99023.31;;;8.17;88.71
59055;BME280;44845;51.444;7.460;2024-03-23T08:26:00;99027.66;;;8.18;89.14
59055;BME280;44845;51.444;7.460;2024-03-23T08:28:26;99025.81;;;8.23;89.40
59055;BME280;44845;51.444;7.460;2024-03-23T08:30:55;99031.94;;;8.26;88.16
59055;BME280;44845;51.444;7.460;2024-03-23T08:33:22;99025.81;;;8.23;89.25
59055;BME280;44845;51.444;7.460;2024-03-23T08:35:56;99027.47;;;8.36;89.18
59055;BME280;44845;51.444;7.460;2024-03-23T08:38:22;99038.69;;;8.42;89.54
59055;BME280;44845;51.444;7.460;2024-03-23T08:40:56;99027.22;;;8.53;88.47
59055;BME280;44845;51.444;7.460;2024-03-23T08:43:22;99024.56;;;8.56;87.73
59055;BME280;44845;51.444;7.460;2024-03-23T08:45:47;99028.97;;;8.54;88.93
59055;BME280;44845;51.444;7.460;2024-03-23T08:48:13;99026.53;;;8.38;88.32
59055;BME280;44845;51.444;7.460;2024-03-23T08:50:38;99017.81;;;8.39;86.96
59055;BME280;44845;51.444;7.460;2024-03-23T08:53:03;99020.47;;;8.36;86.83
59055;BME280;44845;51.444;7.460;2024-03-23T08:55:29;99016.28;;;8.22;87.02
59055;BME280;44845;51.444;7.460;2024-03-23T08:57:55;99022.13;;;8.43;87.32
59055;BME280;44845;51.444;7.460;2024-03-23T09:00:21;99017.44;;;8.71;87.45
59055;BME280;44845;51.444;7.460;2024-03-23T09:02:50;99014.09;;;8.62;87.25
59055;BME280;44845;51.444;7.460;2024-03-23T09:05:15;99018.09;;;8.88;86.96
59055;BME280;44845;51.444;7.460;2024-03-23T09:07:40;99014.56;;;8.91;84.68
59055;BME280;44845;51.444;7.460;2024-03-23T09:10:07;99012.31;;;8.64;84.31
59055;BME280;44845;51.444;7.460;2024-03-23T09:12:32;99018.47;;;8.57;85.02
59055;BME280;44845;51.444;7.460;2024-03-23T09:14:58;99015.88;;;8.60;82.39
59055;BME280;44845;51.444;7.460;2024-03-23T09:17:23;99014.97;;;8.61;81.59
59055;BME280;44845;51.444;7.460;2024-03-23T09:19:48;99018.38;;;8.66;82.78
59055;BME280;44845;51.444;7.460;2024-03-23T09:22:13;99011.28;;;8.76;83.30
59055;BME280;44845;51.444;7.460;2024-03-23T09:24:39;99019.16;;;8.73;81.87
59055;BME280;44845;51.444;7.460;2024-03-23T09:27:05;99013.31;;;8.52;80.19
59055;BME280;44845;51.444;7.460;2024-03-23T09:29:30;99023.38;;;8.84;82.11
59055;BME280;44845;51.444;7.460;2024-03-23T09:31:56;99039.03;;;8.87;80.81
59055;BME280;44845;51.444;7.460;2024-03-23T09:34:21;99027.78;;;8.80;79.76
59055;BME280;44845;51.444;7.460;2024-03-23T09:36:47;99037.75;;;8.47;80.23
59055;BME280;44845;51.444;7.460;2024-03-23T09:39:12;99043.22;;;8.28;80.58
59055;BME280;44845;51.444;7.460;2024-03-23T09:41:39;99041.59;;;8.14;79.12
59055;BME280;44845;51.444;7.460;2024-03-23T09:44:05;99042.56;;;8.07;78.80
59055;BME280;44845;51.444;7.460;2024-03-23T09:46:30;99041.59;;;8.16;79.23
59055;BME280;44845;51.444;7.460;2024-03-23T09:48:59;99046.00;;;8.09;78.67
59055;BME280;44845;51.444;7.460;2024-03-23T09:51:25;99045.22;;;8.04;78.45
59055;BME280;44845;51.444;7.460;2024-03-23T09:53:51;99040.75;;;8.12;79.60
59055;BME280;44845;51.444;7.460;2024-03-23T09:56:17;99033.78;;;8.14;79.05
59055;BME280;44845;51.444;7.460;2024-03-23T09:58:42;99039.06;;;8.08;80.39
59055;BME280;44845;51.444;7.460;2024-03-23T10:01:08;99025.41;;;7.84;80.26
59055;BME280;44845;51.444;7.460;2024-03-23T10:03:42;99024.53;;;7.83;80.89
59055;BME280;44845;51.444;7.460;2024-03-23T10:06:08;99037.34;;;8.07;81.18
59055;BME280;44845;51.444;7.460;2024-03-23T10:08:33;99018.94;;;8.16;81.81
59055;BME280;44845;51.444;7.460;2024-03-23T10:11:15;99020.09;;;7.90;83.34
59055;BME280;44845;51.444;7.460;2024-03-23T10:13:42;99011.31;;;8.00;84.79
59055;BME280;44845;51.444;7.460;2024-03-23T10:16:09;99015.66;;;8.00;83.98
59055;BME280;44845;51.444;7.460;2024-03-23T10:18:38;99007.78;;;8.02;81.08
59055;BME280;44845;51.444;7.460;2024-03-23T10:21:10;99015.44;;;8.20;83.02
59055;BME280;44845;51.444;7.460;2024-03-23T10:23:38;98996.94;;;8.36;81.76
59055;BME280;44845;51.444;7.460;2024-03-23T10:26:22;98993.22;;;8.58;82.04
59055;BME280;44845;51.444;7.460;2024-03-23T10:28:57;98997.78;;;8.38;79.77
59055;BME280;44845;51.444;7.460;2024-03-23T10:31:25;98989.66;;;8.63;80.34
59055;BME280;44845;51.444;7.460;2024-03-23T10:33:51;98989.53;;;8.73;79.89
59055;BME280;44845;51.444;7.460;2024-03-23T10:36:19;98997.03;;;8.98;79.52
59055;BME280;44845;51.444;7.460;2024-03-23T10:38:46;98985.75;;;8.93;77.31
59055;BME280;44845;51.444;7.460;2024-03-23T10:41:12;98975.44;;;8.83;76.67
59055;BME280;44845;51.444;7.460;2024-03-23T10:43:38;98987.53;;;8.92;77.22
59055;BME280;44845;51.444;7.460;2024-03-23T10:46:04;98977.59;;;9.15;75.58
59055;BME280;44845;51.444;7.460;2024-03-23T10:48:31;98968.84;;;9.16;73.08
59055;BME280;44845;51.444;7.460;2024-03-23T10:50:56;98968.09;;;9.09;74.31
59055;BME280;44845;51.444;7.460;2024-03-23T10:53:26;98964.63;;;9.08;73.61
59055;BME280;44845;51.444;7.460;2024-03-23T10:55:52;98973.13;;;9.20;72.12
59055;BME280;44845;51.444;7.460;2024-03-23T10:58:26;98964.25;;;9.30;70.25
59055;BME280;44845;51.444;7.460;2024-03-23T11:00:53;98962.50;;;9.29;72.49
59055;BME280;44845;51.444;7.460;2024-03-23T11:03:38;98957.06;;;9.42;71.81
59055;BME280;44845;51.444;7.460;2024-03-23T11:06:05;98959.91;;;9.29;71.15
59055;BME280;44845;51.444;7.460;2024-03-23T11:08:38;98959.09;;;9.26;71.40
59055;BME280;44845;51.444;7.460;2024-03-23T11:13:47;98967.38;;;9.51;71.55
59055;BME280;44845;51.444;7.460;2024-03-23T11:18:39;99060.25;;;8.62;70.96
59055;BME280;44845;51.444;7.460;2024-03-23T11:21:06;99067.81;;;8.06;73.37
59055;BME280;44845;51.444;7.460;2024-03-23T11:23:32;99088.69;;;6.93;77.20
59055;BME280;44845;51.444;7.460;2024-03-23T11:25:57;99089.63;;;6.78;78.38
59055;BME280;44845;51.444;7.460;2024-03-23T11:28:22;99081.72;;;6.89;79.62
59055;BME280;44845;51.444;7.460;2024-03-23T11:30:48;99059.28;;;6.62;78.44
59055;BME280;44845;51.444;7.460;2024-03-23T11:33:13;99062.72;;;6.66;80.72
59055;BME280;44845;51.444;7.460;2024-03-23T11:35:40;99052.97;;;7.01;81.44
59055;BME280;44845;51.444;7.460;2024-03-23T11:38:12;99057.19;;;7.27;81.60
59055;BME280;44845;51.444;7.460;2024-03-23T11:40:39;99037.06;;;7.40;82.23
59055;BME280;44845;51.444;7.460;2024-03-23T11:43:12;99036.94;;;7.58;82.09
59055;BME280;44845;51.444;7.460;2024-03-23T11:45:46;99033.44;;;7.57;84.37
59055;BME280;44845;51.444;7.460;2024-03-23T11:48:14;99035.94;;;7.70;86.97
59055;BME280;44845;51.444;7.460;2024-03-23T11:50:45;99028.84;;;7.86;86.49
59055;BME280;44845;51.444;7.460;2024-03-23T11:53:15;99025.13;;;8.09;82.95
59055;BME280;44845;51.444;7.460;2024-03-23T11:55:58;99017.38;;;8.03;84.75
59055;BME280;44845;51.444;7.460;2024-03-23T11:58:25;99005.13;;;8.08;85.07
59055;BME280;44845;51.444;7.460;2024-03-23T12:01:01;99007.50;;;8.27;84.41
59055;BME280;44845;51.444;7.460;2024-03-23T12:03:28;99011.31;;;8.00;83.82
59055;BME280;44845;51.444;7.460;2024-03-23T12:05:55;98994.03;;;7.85;80.84
59055;BME280;44845;51.444;7.460;2024-03-23T12:11:11;98993.34;;;7.69;80.02
59055;BME280;44845;51.444;7.460;2024-03-23T12:13:38;98991.34;;;7.92;79.42
59055;BME280;44845;51.444;7.460;2024-03-23T12:16:16;98985.09;;;8.07;78.61
59055;BME280;44845;51.444;7.460;2024-03-23T12:18:44;98979.25;;;7.84;75.42
59055;BME280;44845;51.444;7.460;2024-03-23T12:21:09;98987.09;;;7.84;74.63
59055;BME280;44845;51.444;7.460;2024-03-23T12:23:35;98987.94;;;7.88;75.52
59055;BME280;44845;51.444;7.460;2024-03-23T12:26:00;98980.88;;;7.98;75.87
59055;BME280;44845;51.444;7.460;2024-03-23T12:28:27;98984.25;;;8.05;76.80
59055;BME280;44845;51.444;7.460;2024-03-23T12:30:52;98981.88;;;7.86;74.80
59055;BME280;44845;51.444;7.460;2024-03-23T12:33:19;98971.06;;;8.17;76.31
59055;BME280;44845;51.444;7.460;2024-03-23T12:35:44;98979.47;;;8.41;75.75
59055;BME280;44845;51.444;7.460;2024-03-23T12:38:10;98976.97;;;8.32;74.66
59055;BME280;44845;51.444;7.460;2024-03-23T12:40:35;98983.19;;;8.21;72.52
59055;BME280;44845;51.444;7.460;2024-03-23T12:43:00;98995.03;;;8.51;70.75
59055;BME280;44845;51.444;7.460;2024-03-23T12:45:26;98998.75;;;8.31;72.74
59055;BME280;44845;51.444;7.460;2024-03-23T12:47:52;99006.38;;;8.48;74.34
59055;BME280;44845;51.444;7.460;2024-03-23T12:50:21;99004.03;;;8.26;73.20
59055;BME280;44845;51.444;7.460;2024-03-23T12:52:46;99014.06;;;7.82;71.21
59055;BME280;44845;51.444;7.460;2024-03-23T12:55:12;99000.75;;;8.10;72.97
59055;BME280;44845;51.444;7.460;2024-03-23T12:57:37;99007.50;;;8.30;72.09
59055;BME280;44845;51.444;7.460;2024-03-23T13:00:03;99005.56;;;8.44;72.24
59055;BME280;44845;51.444;7.460;2024-03-23T13:02:29;99007.41;;;8.36;72.67
59055;BME280;44845;51.444;7.460;2024-03-23T13:04:54;99004.56;;;8.53;71.98
59055;BME280;44845;51.444;7.460;2024-03-23T13:07:22;98995.09;;;8.48;70.61
59055;BME280;44845;51.444;7.460;2024-03-23T13:09:50;98994.94;;;8.60;72.01
59055;BME280;44845;51.444;7.460;2024-03-23T13:12:16;99000.22;;;8.54;71.33
59055;BME280;44845;51.444;7.460;2024-03-23T13:14:43;99004.63;;;8.49;69.69
59055;BME280;44845;51.444;7.460;2024-03-23T13:17:09;99011.50;;;8.58;72.72
59055;BME280;44845;51.444;7.460;2024-03-23T13:19:34;99008.13;;;8.49;69.68
59055;BME280;44845;51.444;7.460;2024-03-23T13:22:01;99002.53;;;8.79;74.12
59055;BME280;44845;51.444;7.460;2024-03-23T13:24:27;99000.97;;;8.65;71.96
59055;BME280;44845;51.444;7.460;2024-03-23T13:26:53;98982.59;;;8.72;71.61
59055;BME280;44845;51.444;7.460;2024-03-23T13:29:19;98998.59;;;8.43;71.19
59055;BME280;44845;51.444;7.460;2024-03-23T13:31:48;98991.44;;;8.61;71.58
59055;BME280;44845;51.444;7.460;2024-03-23T13:34:14;99002.06;;;8.45;72.46
59055;BME280;44845;51.444;7.460;2024-03-23T13:36:49;99010.00;;;8.38;71.90
59055;BME280;44845;51.444;7.460;2024-03-23T13:39:14;99009.41;;;8.12;74.01
59055;BME280;44845;51.444;7.460;2024-03-23T13:41:44;99017.03;;;8.31;73.91
59055;BME280;44845;51.444;7.460;2024-03-23T13:44:10;99011.72;;;8.39;74.27
59055;BME280;44845;51.444;7.460;2024-03-23T13:46:37;99018.22;;;8.02;72.67
59055;BME280;44845;51.444;7.460;2024-03-23T13:49:03;99010.25;;;8.14;72.82
59055;BME280;44845;51.444;7.460;2024-03-23T13:51:28;99010.19;;;8.22;72.84
59055;BME280;44845;51.444;7.460;2024-03-23T13:53:54;99005.75;;;8.29;71.55
59055;BME280;44845;51.444;7.460;2024-03-23T13:56:20;99002.84;;;8.51;72.12
59055;BME280;44845;51.444;7.460;2024-03-23T13:58:46;99002.97;;;8.41;72.00
59055;BME280;44845;51.444;7.460;2024-03-23T14:01:13;98993.19;;;8.62;71.63
59055;BME280;44845;51.444;7.460;2024-03-23T14:03:38;98996.88;;;8.42;69.21
59055;BME280;44845;51.444;7.460;2024-03-23T14:06:04;98989.13;;;8.34;69.97